createdAt,value
2023-05-18T00:02:21.599Z,10.44
2023-05-18T00:04:48.704Z,10.43
2023-05-18T00:07:15.638Z,10.42
2023-05-18T00:09:42.567Z,10.34
2023-05-18T00:12:12.839Z,10.35
2023-05-18T00:14:39.885Z,10.38
2023-05-18T00:17:07.096Z,10.33
2023-05-18T00:19:33.946Z,10.37
2023-05-18T00:22:02.222Z,10.33
2023-05-18T00:24:29.118Z,10.23
2023-05-18T00:26:56.092Z,10.26
2023-05-18T00:29:22.958Z,10.11
2023-05-18T00:31:50.005Z,10.18
2023-05-18T00:34:17.364Z,10.22
2023-05-18T00:36:44.428Z,10.17
2023-05-18T00:39:11.383Z,10.11
2023-05-18T00:41:38.741Z,10.14
2023-05-18T00:44:06.244Z,10.11
2023-05-18T00:46:33.680Z,10.04
2023-05-18T00:49:03.972Z,10.01
2023-05-18T00:51:33.290Z,10.06
2023-05-18T00:54:02.421Z,9.98
2023-05-18T00:56:34.272Z,10.02
2023-05-18T00:59:03.305Z,9.94
2023-05-18T01:01:36.537Z,9.94
2023-05-18T01:04:04.612Z,9.83
2023-05-18T01:06:35.984Z,9.86
2023-05-18T01:09:07.048Z,9.84
2023-05-18T01:11:58.440Z,9.78
2023-05-18T01:14:39.191Z,9.84
2023-05-18T01:17:33.586Z,9.83
2023-05-18T01:20:38.054Z,9.70
2023-05-18T01:23:35.569Z,9.74
2023-05-18T01:26:29.983Z,9.70
2023-05-18T01:29:00.407Z,9.67
2023-05-18T01:31:29.060Z,9.58
2023-05-18T01:33:55.935Z,9.59
2023-05-18T01:36:22.761Z,9.64
2023-05-18T01:38:50.514Z,9.60
2023-05-18T01:41:23.602Z,9.61
2023-05-18T01:44:12.519Z,9.48
2023-05-18T01:47:14.464Z,9.57
2023-05-18T01:50:02.331Z,9.53
2023-05-18T01:52:37.739Z,9.54
2023-05-18T01:55:06.911Z,9.52
2023-05-18T01:57:36.620Z,9.49
2023-05-18T02:00:07.899Z,9.46
2023-05-18T02:02:36.161Z,9.42
2023-05-18T02:05:05.080Z,9.39
2023-05-18T02:07:31.962Z,9.41
2023-05-18T02:09:58.910Z,9.38
2023-05-18T02:12:26.080Z,9.37
2023-05-18T02:14:53.034Z,9.32
2023-05-18T02:17:19.937Z,9.29
2023-05-18T02:19:46.958Z,9.30
2023-05-18T02:22:14.342Z,9.25
2023-05-18T02:24:42.418Z,9.27
2023-05-18T02:27:09.360Z,9.23
2023-05-18T02:29:36.299Z,9.25
2023-05-18T02:32:03.463Z,9.23
2023-05-18T02:34:32.437Z,9.18
2023-05-18T02:37:03.796Z,9.20
2023-05-18T02:39:31.449Z,9.16
2023-05-18T02:41:58.425Z,9.12
2023-05-18T02:44:25.301Z,9.12
2023-05-18T02:46:52.248Z,9.09
2023-05-18T02:49:19.186Z,9.08
2023-05-18T02:51:46.072Z,8.96
2023-05-18T02:54:13.063Z,8.99
2023-05-18T02:56:41.560Z,8.99
2023-05-18T02:59:08.975Z,8.90
2023-05-18T03:01:37.697Z,8.93
2023-05-18T03:04:05.971Z,8.85
2023-05-18T03:06:32.881Z,8.88
2023-05-18T03:08:59.795Z,8.79
2023-05-18T03:11:27.842Z,8.78
2023-05-18T03:13:54.917Z,8.74
2023-05-18T03:16:21.954Z,8.79
2023-05-18T03:18:48.847Z,8.80
2023-05-18T03:21:16.619Z,8.78
2023-05-18T03:23:44.269Z,8.78
2023-05-18T03:26:12.385Z,8.77
2023-05-18T03:28:40.614Z,8.76
2023-05-18T03:31:08.913Z,8.70
2023-05-18T03:33:36.078Z,8.70
2023-05-18T03:36:04.822Z,8.72
2023-05-18T03:38:31.731Z,8.66
2023-05-18T03:40:58.681Z,8.64
2023-05-18T03:43:26.000Z,8.66
2023-05-18T03:45:53.520Z,8.61
2023-05-18T03:48:21.617Z,8.62
2023-05-18T03:50:48.905Z,8.58
2023-05-18T03:53:19.370Z,8.54
2023-05-18T03:55:46.911Z,8.60
2023-05-18T03:58:13.752Z,8.55
2023-05-18T04:00:40.903Z,8.48
2023-05-18T04:03:07.853Z,8.56
2023-05-18T04:05:34.881Z,8.53
2023-05-18T04:08:02.030Z,8.55
2023-05-18T04:10:28.844Z,8.53
2023-05-18T04:12:55.851Z,8.47
2023-05-18T04:15:22.899Z,8.53
2023-05-18T04:17:51.990Z,8.53
2023-05-18T04:20:19.283Z,8.54
2023-05-18T04:22:48.387Z,8.55
2023-05-18T04:25:16.410Z,8.52
2023-05-18T04:27:49.785Z,8.54
2023-05-18T04:30:18.693Z,8.47
2023-05-18T04:32:45.673Z,8.54
2023-05-18T04:35:12.670Z,8.48
2023-05-18T04:37:43.223Z,8.58
2023-05-18T04:40:14.489Z,8.58
2023-05-18T04:42:48.431Z,8.58
2023-05-18T04:45:20.489Z,8.60
2023-05-18T04:47:53.109Z,8.57
2023-05-18T04:50:21.475Z,8.57
2023-05-18T04:52:50.582Z,8.58
2023-05-18T04:55:23.192Z,8.60
2023-05-18T04:57:53.839Z,8.56
2023-05-18T05:00:21.099Z,8.63
2023-05-18T05:02:48.067Z,8.64
2023-05-18T05:05:15.133Z,8.50
2023-05-18T05:07:42.005Z,8.59
2023-05-18T05:10:09.783Z,8.60
2023-05-18T05:12:40.445Z,8.66
2023-05-18T05:15:19.341Z,8.61
2023-05-18T05:18:02.640Z,8.72
2023-05-18T05:20:31.604Z,8.74
2023-05-18T05:22:59.154Z,8.75
2023-05-18T05:25:26.083Z,8.78
2023-05-18T05:27:53.085Z,8.80
2023-05-18T05:30:19.936Z,8.79
2023-05-18T05:32:46.992Z,8.81
2023-05-18T05:35:13.994Z,8.86
2023-05-18T05:37:40.975Z,8.81
2023-05-18T05:40:13.583Z,8.86
2023-05-18T05:42:41.997Z,8.86
2023-05-18T05:45:14.564Z,8.89
2023-05-18T05:47:45.543Z,8.95
2023-05-18T05:50:12.494Z,8.88
2023-05-18T05:52:39.379Z,9.05
2023-05-18T05:55:06.830Z,9.08
2023-05-18T05:57:33.661Z,9.09
2023-05-18T06:00:01.821Z,9.13
2023-05-18T06:02:32.128Z,9.04
2023-05-18T06:04:59.110Z,9.03
2023-05-18T06:07:28.237Z,9.19
2023-05-18T06:09:56.889Z,9.24
2023-05-18T06:12:23.830Z,9.29
2023-05-18T06:14:54.297Z,9.35
2023-05-18T06:17:21.338Z,9.40
2023-05-18T06:19:48.517Z,9.33
2023-05-18T06:22:15.564Z,9.46
2023-05-18T06:24:43.826Z,9.52
2023-05-18T06:27:11.553Z,9.56
2023-05-18T06:29:38.707Z,9.62
2023-05-18T06:32:06.710Z,9.66
2023-05-18T06:34:33.660Z,9.71
2023-05-18T06:37:01.703Z,9.74
2023-05-18T06:39:28.818Z,9.76
2023-05-18T06:41:56.670Z,9.79
2023-05-18T06:44:23.640Z,9.79
2023-05-18T06:46:50.834Z,9.94
2023-05-18T06:49:17.799Z,9.90
2023-05-18T06:51:46.244Z,10.02
2023-05-18T06:54:14.874Z,10.02
2023-05-18T06:56:41.753Z,10.04
2023-05-18T06:59:08.704Z,10.14
2023-05-18T07:01:36.813Z,10.17
2023-05-18T07:04:04.105Z,10.13
2023-05-18T07:06:31.327Z,10.26
2023-05-18T07:08:58.170Z,10.30
2023-05-18T07:11:25.879Z,10.32
2023-05-18T07:13:54.340Z,10.35
2023-05-18T07:16:21.489Z,10.44
2023-05-18T07:18:48.464Z,10.34
2023-05-18T07:21:16.576Z,10.51
2023-05-18T07:23:44.000Z,10.52
2023-05-18T07:26:12.063Z,10.54
2023-05-18T07:28:39.537Z,10.53
2023-05-18T07:31:06.672Z,10.64
2023-05-18T07:33:33.590Z,10.67
2023-05-18T07:36:00.487Z,10.77
2023-05-18T07:38:28.301Z,10.88
2023-05-18T07:40:55.283Z,10.91
2023-05-18T07:43:22.164Z,10.97
2023-05-18T07:45:49.083Z,10.97
2023-05-18T07:48:16.281Z,10.99
2023-05-18T07:50:43.442Z,11.03
2023-05-18T07:53:10.332Z,10.89
2023-05-18T07:55:37.341Z,11.12
2023-05-18T07:58:04.711Z,11.25
2023-05-18T08:00:31.791Z,11.28
2023-05-18T08:03:01.160Z,11.28
2023-05-18T08:05:28.644Z,11.27
2023-05-18T08:07:56.742Z,11.34
2023-05-18T08:10:23.731Z,11.39
2023-05-18T08:12:50.848Z,11.52
2023-05-18T08:15:17.773Z,11.56
2023-05-18T08:17:44.738Z,11.60
2023-05-18T08:20:12.382Z,11.57
2023-05-18T08:22:39.223Z,11.69
2023-05-18T08:25:07.549Z,11.75
2023-05-18T08:27:34.649Z,11.69
2023-05-18T08:30:01.702Z,11.82
2023-05-18T08:32:28.599Z,11.84
2023-05-18T08:34:55.774Z,11.85
2023-05-18T08:37:29.050Z,12.00
2023-05-18T08:39:56.342Z,12.09
2023-05-18T08:42:48.504Z,12.04
2023-05-18T08:45:42.723Z,12.15
2023-05-18T08:48:11.653Z,12.15
2023-05-18T08:50:43.063Z,12.08
2023-05-18T08:53:11.818Z,12.15
2023-05-18T08:55:40.433Z,12.34
2023-05-18T08:58:09.484Z,12.38
2023-05-18T09:00:37.506Z,12.41
2023-05-18T09:03:08.501Z,12.50
2023-05-18T09:05:36.436Z,12.57
2023-05-18T09:08:03.847Z,12.61
2023-05-18T09:10:33.797Z,12.64
2023-05-18T09:13:01.497Z,12.66
2023-05-18T09:15:29.363Z,12.71
2023-05-18T09:17:56.394Z,12.80
2023-05-18T09:20:25.812Z,12.85
2023-05-18T09:22:53.172Z,12.81
2023-05-18T09:25:21.649Z,12.86
2023-05-18T09:27:49.368Z,12.88
2023-05-18T09:30:16.272Z,12.87
2023-05-18T09:32:48.519Z,12.96
2023-05-18T09:35:16.022Z,12.94
2023-05-18T09:37:43.506Z,13.07
2023-05-18T09:40:11.046Z,13.08
2023-05-18T09:42:40.693Z,13.21
2023-05-18T09:45:24.105Z,13.24
2023-05-18T09:47:51.804Z,13.24
2023-05-18T09:50:22.984Z,13.26
2023-05-18T09:52:50.581Z,13.31
2023-05-18T09:55:19.734Z,13.36
2023-05-18T09:57:49.440Z,13.39
2023-05-18T10:00:19.329Z,13.53
2023-05-18T10:02:49.369Z,13.50
2023-05-18T10:05:27.709Z,13.53
2023-05-18T10:07:55.757Z,13.60
2023-05-18T10:10:26.137Z,13.68
2023-05-18T10:12:55.279Z,13.61
2023-05-18T10:15:23.978Z,13.73
2023-05-18T10:17:57.230Z,13.75
2023-05-18T10:20:27.968Z,13.79
2023-05-18T10:23:05.875Z,13.81
2023-05-18T10:25:34.124Z,13.86
2023-05-18T10:28:08.029Z,13.87
2023-05-18T10:30:47.691Z,13.98
2023-05-18T10:33:28.523Z,14.06
2023-05-18T10:35:59.606Z,14.12
2023-05-18T10:38:31.197Z,14.19
2023-05-18T10:41:02.109Z,14.18
2023-05-18T10:43:30.876Z,14.27
2023-05-18T10:46:01.166Z,14.32
2023-05-18T10:48:30.235Z,14.42
2023-05-18T10:50:59.208Z,14.49
2023-05-18T10:53:30.039Z,14.46
2023-05-18T10:55:57.124Z,14.53
2023-05-18T10:58:31.190Z,14.59
2023-05-18T11:01:03.331Z,14.68
2023-05-18T11:03:33.290Z,14.76
2023-05-18T11:06:12.798Z,14.80
2023-05-18T11:08:47.992Z,14.84
2023-05-18T11:11:19.865Z,15.05
2023-05-18T11:13:54.028Z,14.90
2023-05-18T11:16:22.362Z,15.14
2023-05-18T11:18:52.019Z,15.21
2023-05-18T11:21:24.891Z,15.34
2023-05-18T11:24:14.075Z,15.34
2023-05-18T11:26:45.079Z,15.31
2023-05-18T11:29:36.280Z,15.44
2023-05-18T11:32:05.703Z,15.39
2023-05-18T11:34:47.646Z,15.41
2023-05-18T11:37:37.140Z,15.49
2023-05-18T11:40:33.916Z,15.49
2023-05-18T11:43:01.230Z,15.57
2023-05-18T11:45:28.279Z,15.60
2023-05-18T11:48:02.062Z,15.62
2023-05-18T11:50:31.959Z,15.66
2023-05-18T11:53:00.993Z,15.64
2023-05-18T11:55:39.131Z,15.66
2023-05-18T11:58:18.917Z,15.51
2023-05-18T12:00:48.998Z,15.78
2023-05-18T12:03:17.882Z,15.83
2023-05-18T12:05:49.266Z,15.86
2023-05-18T12:08:30.064Z,15.88
2023-05-18T12:10:58.304Z,15.92
2023-05-18T12:13:29.467Z,15.96
2023-05-18T12:15:59.025Z,16.08
2023-05-18T12:18:41.349Z,16.15
2023-05-18T12:21:22.259Z,16.21
2023-05-18T12:23:49.534Z,16.10
2023-05-18T12:26:19.587Z,16.17
2023-05-18T12:28:46.584Z,16.25
2023-05-18T12:31:13.549Z,16.47
2023-05-18T12:33:40.384Z,16.43
2023-05-18T12:36:11.534Z,16.49
2023-05-18T12:38:38.489Z,16.50
2023-05-18T12:41:06.587Z,16.57
2023-05-18T12:43:37.377Z,16.63
2023-05-18T12:46:05.283Z,16.68
2023-05-18T12:48:37.532Z,16.66
2023-05-18T12:51:04.663Z,16.69
2023-05-18T12:53:42.987Z,16.62
2023-05-18T12:56:11.589Z,16.69
2023-05-18T12:58:40.557Z,16.69
2023-05-18T13:01:09.800Z,16.72
2023-05-18T13:03:40.551Z,16.75
2023-05-18T13:06:09.505Z,16.75
2023-05-18T13:08:37.285Z,16.72
2023-05-18T13:11:13.572Z,16.79
2023-05-18T13:14:06.078Z,16.80
2023-05-18T13:16:41.430Z,16.84
2023-05-18T13:19:10.526Z,16.91
2023-05-18T13:21:38.090Z,17.06
2023-05-18T13:24:05.688Z,17.12
2023-05-18T13:26:32.959Z,17.11
2023-05-18T13:29:00.313Z,17.15
2023-05-18T13:31:29.353Z,17.08
2023-05-18T13:33:56.258Z,17.04
2023-05-18T13:36:23.522Z,17.07
2023-05-18T13:38:52.110Z,17.06
2023-05-18T13:41:19.053Z,17.19
2023-05-18T13:43:45.916Z,17.14
2023-05-18T13:46:13.487Z,17.11
2023-05-18T13:48:40.396Z,17.20
2023-05-18T13:51:07.338Z,17.18
2023-05-18T13:53:34.207Z,17.17
2023-05-18T13:56:01.062Z,17.14
2023-05-18T13:58:27.887Z,17.11
2023-05-18T14:00:55.323Z,17.01
2023-05-18T14:03:22.564Z,17.01
2023-05-18T14:05:49.750Z,17.01
2023-05-18T14:08:16.635Z,17.05
2023-05-18T14:10:43.533Z,17.02
2023-05-18T14:13:10.489Z,17.11
2023-05-18T14:15:37.395Z,17.29
2023-05-18T14:18:04.453Z,17.30
2023-05-18T14:20:31.659Z,17.30
2023-05-18T14:22:58.884Z,17.33
2023-05-18T14:25:26.418Z,17.22
2023-05-18T14:27:53.513Z,17.15
2023-05-18T14:30:22.466Z,17.13
2023-05-18T14:32:49.609Z,17.13
2023-05-18T14:35:16.666Z,17.18
2023-05-18T14:37:44.033Z,17.22
2023-05-18T14:40:11.376Z,17.25
2023-05-18T14:42:38.703Z,17.23
2023-05-18T14:45:06.494Z,17.11
2023-05-18T14:47:33.439Z,17.13
2023-05-18T14:50:00.699Z,17.08
2023-05-18T14:52:27.648Z,16.98
2023-05-18T14:54:54.755Z,16.99
2023-05-18T14:57:21.778Z,16.98
2023-05-18T14:59:48.841Z,16.95
2023-05-18T15:02:16.347Z,17.01
2023-05-18T15:04:43.561Z,16.98
2023-05-18T15:07:10.595Z,16.85
2023-05-18T15:09:38.713Z,16.82
2023-05-18T15:12:06.136Z,16.83
2023-05-18T15:14:33.145Z,16.77
2023-05-18T15:17:00.281Z,16.76
2023-05-18T15:19:27.275Z,16.74
2023-05-18T15:21:55.668Z,16.77
2023-05-18T15:24:22.724Z,16.81
2023-05-18T15:26:49.819Z,16.72
2023-05-18T15:29:16.894Z,16.78
2023-05-18T15:31:47.004Z,16.79
2023-05-18T15:34:15.421Z,16.58
2023-05-18T15:36:42.541Z,16.69
2023-05-18T15:39:09.700Z,16.68
2023-05-18T15:41:36.740Z,16.74
2023-05-18T15:44:03.987Z,16.64
2023-05-18T15:46:33.103Z,16.70
2023-05-18T15:49:00.113Z,16.56
2023-05-18T15:51:27.351Z,16.63
2023-05-18T15:53:55.641Z,16.63
2023-05-18T15:56:24.017Z,16.64
2023-05-18T15:58:51.593Z,16.61
2023-05-18T16:01:18.583Z,16.52
2023-05-18T16:03:46.048Z,16.57
2023-05-18T16:06:13.250Z,16.58
2023-05-18T16:08:40.124Z,16.53
2023-05-18T16:11:07.139Z,16.57
2023-05-18T16:13:34.125Z,16.52
2023-05-18T16:16:01.392Z,16.51
2023-05-18T16:18:29.386Z,16.53
2023-05-18T16:20:57.357Z,16.54
2023-05-18T16:23:24.555Z,16.54
2023-05-18T16:25:51.666Z,16.53
2023-05-18T16:28:18.704Z,16.53
2023-05-18T16:30:47.651Z,16.51
2023-05-18T16:33:15.966Z,16.49
2023-05-18T16:35:42.929Z,16.50
2023-05-18T16:38:10.121Z,16.46
2023-05-18T16:40:37.231Z,16.48
2023-05-18T16:43:04.333Z,16.48
2023-05-18T16:45:31.297Z,16.40
2023-05-18T16:47:58.444Z,16.48
2023-05-18T16:50:27.858Z,16.46
2023-05-18T16:52:55.036Z,16.37
2023-05-18T16:55:23.878Z,16.44
2023-05-18T16:57:51.481Z,16.45
2023-05-18T17:00:20.829Z,16.36
2023-05-18T17:02:48.916Z,16.42
2023-05-18T17:05:21.636Z,16.44
2023-05-18T17:07:49.984Z,16.39
2023-05-18T17:10:17.234Z,16.42
2023-05-18T17:12:44.785Z,16.33
2023-05-18T17:15:15.038Z,16.38
2023-05-18T17:17:42.892Z,16.32
2023-05-18T17:20:13.184Z,16.36
2023-05-18T17:22:40.123Z,16.38
2023-05-18T17:25:08.449Z,16.38
2023-05-18T17:27:36.549Z,16.36
2023-05-18T17:30:03.844Z,16.34
2023-05-18T17:32:30.974Z,16.36
2023-05-18T17:34:58.241Z,16.32
2023-05-18T17:37:25.316Z,16.39
2023-05-18T17:39:52.339Z,16.38
2023-05-18T17:42:19.665Z,16.38
2023-05-18T17:44:47.444Z,16.36
2023-05-18T17:47:14.789Z,16.35
2023-05-18T17:49:41.943Z,16.34
2023-05-18T17:52:08.851Z,16.34
2023-05-18T17:54:35.866Z,16.33
2023-05-18T17:57:02.910Z,16.33
2023-05-18T17:59:30.459Z,16.33
2023-05-18T18:01:57.601Z,16.06
2023-05-18T18:04:24.842Z,16.26
2023-05-18T18:06:54.371Z,16.26
2023-05-18T18:09:22.179Z,16.25
2023-05-18T18:11:49.408Z,16.25
2023-05-18T18:14:17.394Z,16.25
2023-05-18T18:16:44.831Z,16.23
2023-05-18T18:19:12.215Z,16.18
2023-05-18T18:21:39.270Z,16.23
2023-05-18T18:24:06.576Z,16.18
2023-05-18T18:26:38.660Z,16.17
2023-05-18T18:29:06.194Z,16.17
2023-05-18T18:31:35.052Z,16.03
2023-05-18T18:34:02.216Z,16.13
2023-05-18T18:36:29.357Z,16.15
2023-05-18T18:38:56.722Z,16.11
2023-05-18T18:41:24.805Z,16.10
2023-05-18T18:43:54.177Z,16.08
2023-05-18T18:46:21.690Z,16.08
2023-05-18T18:48:48.768Z,16.00
2023-05-18T18:51:15.730Z,16.07
2023-05-18T18:53:42.829Z,16.06
2023-05-18T18:56:10.152Z,16.05
2023-05-18T18:58:37.675Z,16.01
2023-05-18T19:01:04.994Z,16.00
2023-05-18T19:03:32.924Z,15.98
2023-05-18T19:06:00.916Z,15.93
2023-05-18T19:08:27.880Z,15.97
2023-05-18T19:10:55.792Z,15.95
2023-05-18T19:13:23.149Z,15.93
2023-05-18T19:15:51.263Z,15.92
2023-05-18T19:18:18.692Z,15.89
2023-05-18T19:20:45.726Z,15.83
2023-05-18T19:23:12.580Z,15.87
2023-05-18T19:25:39.995Z,15.84
2023-05-18T19:28:06.988Z,15.85
2023-05-18T19:30:33.867Z,15.83
2023-05-18T19:33:01.074Z,15.80
2023-05-18T19:35:28.044Z,15.77
2023-05-18T19:37:55.052Z,15.77
2023-05-18T19:40:22.561Z,15.77
2023-05-18T19:42:50.187Z,15.64
2023-05-18T19:45:17.217Z,15.73
2023-05-18T19:47:44.179Z,15.73
2023-05-18T19:50:11.552Z,15.67
2023-05-18T19:52:38.415Z,15.69
2023-05-18T19:55:05.880Z,15.68
2023-05-18T19:57:33.069Z,15.66
2023-05-18T19:59:59.906Z,15.63
2023-05-18T20:02:26.774Z,15.61
2023-05-18T20:04:53.800Z,15.58
2023-05-18T20:07:22.358Z,15.56
2023-05-18T20:09:49.336Z,15.55
2023-05-18T20:12:16.243Z,15.57
2023-05-18T20:14:43.444Z,15.56
2023-05-18T20:17:10.345Z,15.53
2023-05-18T20:19:37.760Z,15.53
2023-05-18T20:22:05.084Z,15.48
2023-05-18T20:24:32.626Z,15.50
2023-05-18T20:26:59.607Z,15.47
2023-05-18T20:29:26.515Z,15.46
2023-05-18T20:31:54.745Z,15.41
2023-05-18T20:34:21.749Z,15.43
2023-05-18T20:36:48.565Z,15.41
2023-05-18T20:39:15.435Z,15.39
2023-05-18T20:41:42.300Z,15.35
2023-05-18T20:44:11.104Z,15.28
2023-05-18T20:46:42.206Z,15.31
2023-05-18T20:49:12.069Z,15.25
2023-05-18T20:51:39.007Z,15.26
2023-05-18T20:54:05.839Z,15.23
2023-05-18T20:56:33.789Z,15.22
2023-05-18T20:59:00.688Z,15.21
2023-05-18T21:01:28.766Z,15.16
2023-05-18T21:03:59.302Z,15.07
2023-05-18T21:06:26.556Z,15.17
2023-05-18T21:08:53.514Z,15.13
2023-05-18T21:11:21.113Z,15.03
2023-05-18T21:13:48.302Z,15.08
2023-05-18T21:16:15.222Z,15.03
2023-05-18T21:18:42.493Z,15.09
2023-05-18T21:21:09.514Z,15.02
2023-05-18T21:23:36.510Z,15.05
2023-05-18T21:26:03.357Z,15.06
2023-05-18T21:28:30.287Z,15.07
2023-05-18T21:30:57.182Z,15.05
2023-05-18T21:33:24.623Z,15.05
2023-05-18T21:35:51.601Z,15.05
2023-05-18T21:38:18.447Z,15.01
2023-05-18T21:40:46.642Z,15.02
2023-05-18T21:43:13.485Z,15.03
2023-05-18T21:45:40.828Z,14.90
2023-05-18T21:48:08.304Z,14.93
2023-05-18T21:50:35.605Z,14.96
2023-05-18T21:53:03.236Z,14.95
2023-05-18T21:55:33.323Z,14.95
2023-05-18T21:58:00.539Z,14.92
2023-05-18T22:00:28.420Z,14.89
2023-05-18T22:02:55.542Z,14.90
2023-05-18T22:05:22.453Z,14.86
2023-05-18T22:07:49.610Z,14.87
2023-05-18T22:10:18.031Z,14.64
2023-05-18T22:12:45.293Z,14.77
2023-05-18T22:15:12.411Z,14.84
2023-05-18T22:17:40.061Z,14.84
2023-05-18T22:20:11.295Z,14.83
2023-05-18T22:22:40.240Z,14.79
2023-05-18T22:25:07.759Z,14.80
2023-05-18T22:27:36.523Z,14.78
2023-05-18T22:30:08.238Z,14.78
2023-05-18T22:32:35.223Z,14.77
2023-05-18T22:35:04.210Z,14.75
2023-05-18T22:37:31.153Z,14.77
2023-05-18T22:39:58.046Z,14.82
2023-05-18T22:42:25.030Z,14.76
2023-05-18T22:44:51.908Z,14.75
2023-05-18T22:47:19.560Z,14.71
2023-05-18T22:49:46.588Z,14.71
2023-05-18T22:52:13.460Z,14.71
2023-05-18T22:54:40.391Z,14.69
2023-05-18T22:57:07.387Z,14.71
2023-05-18T22:59:35.278Z,14.70
2023-05-18T23:02:02.095Z,14.69
2023-05-18T23:04:28.902Z,14.71
2023-05-18T23:06:56.935Z,14.68
2023-05-18T23:09:28.422Z,14.68
2023-05-18T23:11:55.753Z,14.65
2023-05-18T23:14:25.614Z,14.65
2023-05-18T23:16:53.484Z,14.63
2023-05-18T23:19:20.571Z,14.64
2023-05-18T23:21:47.552Z,14.64
2023-05-18T23:24:15.344Z,14.60
2023-05-18T23:26:43.536Z,14.51
2023-05-18T23:29:10.814Z,14.41
2023-05-18T23:31:38.164Z,14.50
2023-05-18T23:34:05.611Z,14.54
2023-05-18T23:36:35.453Z,14.46
2023-05-18T23:39:02.683Z,14.56
2023-05-18T23:41:31.747Z,14.57
2023-05-18T23:43:59.302Z,14.55
2023-05-18T23:46:26.777Z,14.52
2023-05-18T23:48:54.132Z,14.44
2023-05-18T23:51:21.644Z,14.55
2023-05-18T23:53:50.584Z,14.52
2023-05-18T23:56:18.039Z,14.37
2023-05-18T23:58:47.000Z,14.30
